CDT,Max TemperatureF,Mean TemperatureF,Min TemperatureF,Max Dew PointF,MeanDew PointF,Min DewpointF,Max Humidity, Mean Humidity, Min Humidity, Max Sea Level PressureIn, Mean Sea Level PressureIn, Min Sea Level PressureIn, Max VisibilityMiles, Mean VisibilityMiles, Min VisibilityMiles, Max Wind SpeedMPH, Mean Wind SpeedMPH, Max Gust SpeedMPH,PrecipitationIn, CloudCover, Events, WindDirDegrees
2014-8-1,75,72,68,72,69,68,100,94,83,30.06,30.03,29.99,10,8,1,7,2,,0.00,8,,28
2014-8-2,84,76,69,72,70,68,100,85,62,30.11,30.06,30.02,10,8,1,8,2,,0.00,5,,14
2014-8-3,87,78,69,75,72,70,100,83,55,30.09,30.06,30.00,10,7,2,20,1,26,0.00,2,Rain,40
2014-8-4,89,79,69,73,71,70,100,78,52,30.09,30.05,30.00,10,7,1,7,1,,0.00,0,,51
2014-8-5,91,81,71,75,73,72,100,79,52,30.11,30.06,30.01,10,7,1,6,1,,0.00,0,,134
2014-8-6,91,82,73,75,73,70,100,76,49,30.07,30.01,29.94,10,8,2,9,3,,0.00,0,,175
2014-8-7,91,84,77,79,76,75,94,77,59,29.98,29.93,29.84,10,10,7,12,5,16,0.00,0,,174
2014-8-8,95,86,78,75,75,73,89,70,52,29.98,29.93,29.88,10,10,10,12,6,18,0.00,5,,186
2014-8-9,95,86,78,79,75,72,89,72,47,30.03,29.98,29.93,10,10,9,12,5,16,0.00,4,,176
2014-8-10,96,84,73,77,74,66,100,70,37,30.06,30.00,29.94,10,10,8,7,3,,0.00,0,,195
2014-8-11,93,84,75,75,72,64,94,66,41,30.06,30.02,29.97,10,10,10,12,4,17,0.00,0,,326
2014-8-12,89,79,69,72,63,52,100,62,27,30.08,30.04,30.00,10,10,1,14,2,18,0.00,0,,351
2014-8-13,89,76,62,64,60,54,100,63,31,30.13,30.07,30.02,10,10,0,6,1,,0.00,0,,48
2014-8-14,89,76,62,68,64,61,100,70,38,30.11,30.05,29.99,10,9,2,8,1,,0.00,0,,142
2014-8-15,91,78,64,73,68,64,100,74,43,30.06,29.99,29.90,10,9,4,9,2,,0.00,1,,155
2014-8-16,96,84,73,75,73,70,100,71,44,29.99,29.94,29.89,10,10,9,13,5,18,0.00,0,Thunderstorm,178
2014-8-17,84,80,77,77,75,72,94,79,66,30.03,29.96,29.92,10,10,9,10,5,16,0.00,1,Thunderstorm,200
2014-8-18,91,84,77,79,75,72,94,75,52,30.00,29.94,29.88,10,9,7,15,5,20,0.00,1,,203
2014-8-19,93,84,75,75,71,61,94,68,34,29.97,29.92,29.88,10,10,7,17,6,26,0.00,0,Thunderstorm,195
2014-8-20,93,83,73,75,72,68,100,68,44,30.03,29.97,29.92,10,9,6,13,6,18,0.00,6,,170
2014-8-21,96,86,75,77,71,61,100,65,30,30.09,30.03,30.00,10,9,8,13,7,22,0.00,4,,172
2014-8-22,98,88,77,75,71,63,89,63,32,30.09,30.03,29.97,10,9,3,10,6,18,0.00,0,,185
2014-8-23,96,84,73,73,69,59,100,61,30,30.04,29.99,29.92,10,10,6,10,4,,0.00,0,,174
2014-8-24,96,84,71,73,70,63,100,66,32,30.00,29.95,29.89,10,10,8,10,3,,0.00,0,,174
2014-8-25,98,84,69,73,69,63,100,66,30,30.02,29.96,29.90,10,10,9,6,1,,0.00,0,,175
2014-8-26,96,84,73,73,71,64,100,70,34,30.08,30.02,29.96,10,10,4,8,1,,0.00,1,Thunderstorm,99
2014-8-27,93,82,71,73,67,57,100,67,30,30.09,30.03,29.97,10,9,3,8,1,,0.00,1,,90
2014-8-28,96,82,69,72,67,64,88,65,34,30.01,29.95,29.86,10,10,10,10,2,,0.00,1,,148
2014-8-29,89,82,75,79,74,70,100,80,55,29.96,29.92,29.87,10,9,3,14,3,18,0.00,1,Rain-Thunderstorm,166
2014-8-30,91,80,69,73,71,68,100,76,46,30.00,29.95,29.89,10,10,9,7,2,,0.00,2,,148
2014-8-31,93,84,75,75,73,68,100,75,46,30.02,29.97,29.92,10,10,9,13,6,18,0.00,1,,169